createdAt,value
2022-11-16T00:02:06.992Z,99771.56
2022-11-16T00:04:33.629Z,99771.56
2022-11-16T00:07:02.853Z,99764.50
2022-11-16T00:09:31.932Z,99763.53
2022-11-16T00:12:05.569Z,99764.34
2022-11-16T00:14:35.137Z,99760.84
2022-11-16T00:17:02.407Z,99754.50
2022-11-16T00:19:29.155Z,99753.66
2022-11-16T00:21:55.941Z,99751.84
2022-11-16T00:24:23.681Z,99748.28
2022-11-16T00:26:50.927Z,99748.16
2022-11-16T00:29:20.681Z,99750.97
2022-11-16T00:31:48.230Z,99749.03
2022-11-16T00:34:14.960Z,99743.81
2022-11-16T00:36:41.706Z,99733.22
2022-11-16T00:39:11.755Z,99731.53
2022-11-16T00:41:38.273Z,99723.38
2022-11-16T00:44:05.021Z,99725.06
2022-11-16T00:46:31.551Z,99712.78
2022-11-16T00:48:58.053Z,99720.69
2022-11-16T00:51:24.522Z,99718.84
2022-11-16T00:53:51.025Z,99715.22
2022-11-16T00:56:17.534Z,99709.84
2022-11-16T00:58:44.064Z,99704.50
2022-11-16T01:01:11.717Z,99708.00
2022-11-16T01:03:38.980Z,99704.63
2022-11-16T01:06:08.040Z,99699.16
2022-11-16T01:08:36.717Z,99700.09
2022-11-16T01:11:23.117Z,99703.63
2022-11-16T01:13:49.759Z,99696.47
2022-11-16T01:16:17.063Z,99693.78
2022-11-16T01:18:47.297Z,99685.88
2022-11-16T01:21:13.857Z,99676.00
2022-11-16T01:23:40.384Z,99678.56
2022-11-16T01:26:07.097Z,99670.66
2022-11-16T01:28:33.890Z,99671.38
2022-11-16T01:31:00.829Z,99667.00
2022-11-16T01:33:27.348Z,99661.50
2022-11-16T01:35:53.854Z,99659.69
2022-11-16T01:38:20.411Z,99659.69
2022-11-16T01:40:46.949Z,99648.97
2022-11-16T01:43:24.277Z,99639.94
2022-11-16T01:45:51.008Z,99642.63
2022-11-16T01:48:22.272Z,99647.84
2022-11-16T01:50:49.973Z,99637.97
2022-11-16T01:53:16.795Z,99632.50
2022-11-16T01:55:45.614Z,99629.81
2022-11-16T01:58:20.166Z,99632.63
2022-11-16T02:00:46.820Z,99627.25
2022-11-16T02:03:13.428Z,99618.53
2022-11-16T02:06:03.521Z,99617.69
2022-11-16T02:09:07.163Z,99613.03
2022-11-16T02:11:47.826Z,99617.41
2022-11-16T02:14:32.289Z,99611.81
2022-11-16T02:17:20.493Z,99598.53
2022-11-16T02:20:32.005Z,99608.84
2022-11-16T02:23:16.526Z,99600.09
2022-11-16T02:25:55.232Z,99599.13
2022-11-16T02:28:27.681Z,99590.38
2022-11-16T02:30:58.854Z,99593.06
2022-11-16T02:33:30.480Z,99586.84
2022-11-16T02:36:01.007Z,99583.16
2022-11-16T02:38:32.354Z,99582.19
2022-11-16T02:41:08.093Z,99588.28
2022-11-16T02:43:40.422Z,99576.69
2022-11-16T02:46:12.981Z,99580.25
2022-11-16T02:48:46.186Z,99575.72
2022-11-16T02:51:14.102Z,99572.91
2022-11-16T02:53:52.470Z,99566.56
2022-11-16T02:56:19.653Z,99559.50
2022-11-16T02:58:47.434Z,99565.56
2022-11-16T03:01:22.831Z,99563.88
2022-11-16T03:03:54.987Z,99555.84
2022-11-16T03:06:34.597Z,99554.84
2022-11-16T03:09:07.229Z,99550.34
2022-11-16T03:11:55.141Z,99549.22
2022-11-16T03:14:26.243Z,99552.78
2022-11-16T03:17:01.469Z,99553.72
2022-11-16T03:19:47.870Z,99553.72
2022-11-16T03:22:17.187Z,99554.59
2022-11-16T03:24:44.244Z,99545.56
2022-11-16T03:27:21.981Z,99539.38
2022-11-16T03:30:08.546Z,99522.72
2022-11-16T03:32:51.290Z,99532.31
2022-11-16T03:35:30.591Z,99533.16
2022-11-16T03:37:59.855Z,99522.59
2022-11-16T03:40:30.391Z,99527.69
2022-11-16T03:42:59.543Z,99524.13
2022-11-16T03:45:26.713Z,99515.28
2022-11-16T03:47:53.219Z,99517.09
2022-11-16T03:50:19.764Z,99515.41
2022-11-16T03:52:46.290Z,99509.19
2022-11-16T03:55:12.877Z,99511.88
2022-11-16T03:57:39.508Z,99502.00
2022-11-16T04:00:07.637Z,99515.41
2022-11-16T04:02:34.155Z,99501.16
2022-11-16T04:05:19.628Z,99508.19
2022-11-16T04:08:06.771Z,99494.81
2022-11-16T04:10:51.633Z,99493.97
2022-11-16T04:13:43.605Z,99482.28
2022-11-16T04:16:29.465Z,99485.81
2022-11-16T04:19:14.757Z,99481.41
2022-11-16T04:22:05.077Z,99469.75
2022-11-16T04:24:37.365Z,99473.13
2022-11-16T04:27:26.505Z,99475.22
2022-11-16T04:29:54.756Z,99474.38
2022-11-16T04:32:40.214Z,99473.25
2022-11-16T04:35:25.561Z,99469.56
2022-11-16T04:37:53.366Z,99464.22
2022-11-16T04:40:24.665Z,99472.41
2022-11-16T04:42:56.073Z,99467.75
2022-11-16T04:45:41.946Z,99465.22
2022-11-16T04:48:09.725Z,99459.72
2022-11-16T04:50:36.849Z,99458.88
2022-11-16T04:53:04.310Z,99465.22
2022-11-16T04:55:30.959Z,99456.34
2022-11-16T04:57:57.469Z,99461.84
2022-11-16T05:00:24.317Z,99453.81
2022-11-16T05:02:50.806Z,99453.81
2022-11-16T05:05:18.000Z,99448.59
2022-11-16T05:07:44.893Z,99451.13
2022-11-16T05:10:13.225Z,99449.16
2022-11-16T05:12:40.158Z,99455.34
2022-11-16T05:15:08.125Z,99451.00
2022-11-16T05:17:34.925Z,99453.69
2022-11-16T05:20:20.303Z,99447.31
2022-11-16T05:22:56.368Z,99444.09
2022-11-16T05:25:22.978Z,99443.09
2022-11-16T05:27:49.568Z,99451.13
2022-11-16T05:30:16.390Z,99437.00
2022-11-16T05:32:42.888Z,99437.88
2022-11-16T05:35:09.485Z,99432.66
2022-11-16T05:37:36.009Z,99431.66
2022-11-16T05:40:02.552Z,99426.31
2022-11-16T05:42:29.048Z,99423.50
2022-11-16T05:44:55.606Z,99420.81
2022-11-16T05:47:22.221Z,99420.81
2022-11-16T05:49:48.787Z,99416.88
2022-11-16T05:52:15.278Z,99418.00
2022-11-16T05:54:41.794Z,99410.97
2022-11-16T05:57:08.292Z,99409.97
2022-11-16T05:59:34.947Z,99408.16
2022-11-16T06:02:01.560Z,99414.31
2022-11-16T06:04:28.109Z,99410.97
2022-11-16T06:06:54.608Z,99409.28
2022-11-16T06:09:21.205Z,99410.97
2022-11-16T06:11:47.694Z,99406.44
2022-11-16T06:14:14.556Z,99411.66
2022-11-16T06:16:41.027Z,99416.19
2022-11-16T06:19:07.509Z,99411.78
2022-11-16T06:21:34.164Z,99402.78
2022-11-16T06:24:02.635Z,99410.81
2022-11-16T06:26:29.216Z,99407.28
2022-11-16T06:28:55.702Z,99409.84
2022-11-16T06:31:22.476Z,99404.59
2022-11-16T06:33:48.979Z,99407.97
2022-11-16T06:36:15.493Z,99410.81
2022-11-16T06:38:41.967Z,99410.81
2022-11-16T06:41:08.466Z,99395.72
2022-11-16T06:43:35.015Z,99388.81
2022-11-16T06:46:01.565Z,99379.66
2022-11-16T06:48:28.101Z,99385.84
2022-11-16T06:50:54.685Z,99392.78
2022-11-16T06:53:26.064Z,99387.28
2022-11-16T06:55:55.648Z,99380.06
2022-11-16T06:58:42.951Z,99373.03
2022-11-16T07:01:11.476Z,99380.38
2022-11-16T07:03:38.739Z,99378.53
2022-11-16T07:06:10.312Z,99386.41
2022-11-16T07:08:37.108Z,99380.19
2022-11-16T07:11:08.695Z,99375.56
2022-11-16T07:13:37.148Z,99370.22
2022-11-16T07:16:08.466Z,99370.22
2022-11-16T07:18:40.340Z,99373.44
2022-11-16T07:21:12.313Z,99372.31
2022-11-16T07:23:39.189Z,99367.66
2022-11-16T07:26:07.807Z,99367.50
2022-11-16T07:28:34.681Z,99369.91
2022-11-16T07:31:06.993Z,99368.75
2022-11-16T07:33:34.009Z,99366.94
2022-11-16T07:36:02.493Z,99368.75
2022-11-16T07:38:29.370Z,99363.41
2022-11-16T07:41:03.129Z,99361.44
2022-11-16T07:43:31.758Z,99366.66
2022-11-16T07:48:58.485Z,99359.19
2022-11-16T07:51:25.016Z,99352.13
2022-11-16T07:53:55.945Z,99349.59
2022-11-16T07:56:22.907Z,99346.59
2022-11-16T07:58:49.777Z,99339.28
2022-11-16T08:01:18.384Z,99340.97
2022-11-16T08:03:46.314Z,99333.75
2022-11-16T08:06:16.854Z,99325.56
2022-11-16T08:08:43.685Z,99334.34
2022-11-16T08:11:11.619Z,99340.38
2022-11-16T08:13:40.382Z,99334.88
2022-11-16T08:16:10.871Z,99335.72
2022-11-16T08:18:38.005Z,99333.88
2022-11-16T08:21:06.476Z,99338.13
2022-11-16T08:23:33.210Z,99337.97
2022-11-16T08:26:09.591Z,99337.81
2022-11-16T08:28:37.211Z,99339.66
2022-11-16T08:31:16.594Z,99339.50
2022-11-16T08:33:43.108Z,99326.94
2022-11-16T08:36:14.433Z,99331.31
2022-11-16T08:38:42.170Z,99332.03
2022-11-16T08:41:08.708Z,99327.34
2022-11-16T08:43:35.954Z,99332.72
2022-11-16T08:46:03.213Z,99333.41
2022-11-16T08:48:29.833Z,99326.34
2022-11-16T08:51:21.582Z,99325.34
2022-11-16T08:53:49.451Z,99324.38
2022-11-16T08:56:17.883Z,99314.34
2022-11-16T08:58:46.931Z,99317.88
2022-11-16T09:01:19.713Z,99322.09
2022-11-16T09:03:46.674Z,99321.25
2022-11-16T09:06:14.031Z,99316.72
2022-11-16T09:08:42.561Z,99308.41
2022-11-16T09:11:15.889Z,99310.09
2022-11-16T09:13:43.756Z,99317.13
2022-11-16T09:16:10.701Z,99310.75
2022-11-16T09:18:37.988Z,99313.91
2022-11-16T09:21:04.731Z,99313.75
2022-11-16T09:23:31.200Z,99302.91
2022-11-16T09:26:04.467Z,99302.03
2022-11-16T09:28:31.987Z,99302.03
2022-11-16T09:31:04.359Z,99299.91
2022-11-16T09:33:32.123Z,99293.25
2022-11-16T09:36:07.902Z,99292.94
2022-11-16T09:42:04.749Z,99292.50
2022-11-16T09:45:08.883Z,99292.19
2022-11-16T09:48:02.869Z,99292.34
2022-11-16T09:50:49.753Z,99288.69
2022-11-16T09:53:34.522Z,99272.44
2022-11-16T09:56:06.463Z,99268.06
2022-11-16T09:58:42.928Z,99268.06
2022-11-16T10:01:32.844Z,99267.47
2022-11-16T10:04:07.457Z,99253.91
2022-11-16T10:06:56.908Z,99250.38
2022-11-16T10:09:24.235Z,99247.25
2022-11-16T10:12:09.500Z,99243.47
2022-11-16T10:15:09.352Z,99247.81
2022-11-16T10:17:57.744Z,99239.78
2022-11-16T10:20:45.686Z,99235.94
2022-11-16T10:23:25.592Z,99231.41
2022-11-16T10:26:11.357Z,99230.44
2022-11-16T10:29:10.312Z,99239.31
2022-11-16T10:31:55.513Z,99231.41
2022-11-16T10:34:40.062Z,99225.22
2022-11-16T10:37:08.411Z,99225.06
2022-11-16T10:39:36.646Z,99222.53
2022-11-16T10:42:11.795Z,99207.78
2022-11-16T10:44:48.442Z,99206.66
2022-11-16T10:47:54.802Z,99201.84
2022-11-16T10:50:37.455Z,99201.84
2022-11-16T10:53:04.045Z,99197.97
2022-11-16T10:55:31.803Z,99186.28
2022-11-16T10:58:00.023Z,99174.38
2022-11-16T11:00:40.914Z,99178.59
2022-11-16T11:03:07.578Z,99172.22
2022-11-16T11:05:36.225Z,99165.88
2022-11-16T11:08:10.498Z,99168.84
2022-11-16T11:10:39.717Z,99165.47
2022-11-16T11:13:12.103Z,99164.81
2022-11-16T11:15:43.204Z,99158.44
2022-11-16T11:18:10.317Z,99160.13
2022-11-16T11:20:44.522Z,99156.44
2022-11-16T11:23:23.616Z,99150.91
2022-11-16T11:25:54.096Z,99154.75
2022-11-16T11:28:28.572Z,99147.56
2022-11-16T11:31:06.085Z,99146.69
2022-11-16T11:33:49.004Z,99143.50
2022-11-16T11:36:25.039Z,99140.66
2022-11-16T11:38:56.049Z,99136.81
2022-11-16T11:41:23.232Z,99130.59
2022-11-16T11:44:04.453Z,99131.59
2022-11-16T11:47:06.706Z,99123.41
2022-11-16T11:49:34.937Z,99126.38
2022-11-16T11:52:17.194Z,99119.19
2022-11-16T11:54:48.602Z,99121.19
2022-11-16T11:57:22.097Z,99121.88
2022-11-16T11:59:52.347Z,99121.03
2022-11-16T12:02:25.103Z,99120.03
2022-11-16T12:05:19.154Z,99121.03
2022-11-16T12:07:56.067Z,99118.34
2022-11-16T12:10:47.313Z,99120.72
2022-11-16T12:13:34.381Z,99115.19
2022-11-16T12:16:38.422Z,99117.19
2022-11-16T12:19:17.280Z,99112.69
2022-11-16T12:22:08.073Z,99107.31
2022-11-16T12:25:00.384Z,99112.81
2022-11-16T12:27:29.909Z,99110.16
2022-11-16T12:30:13.354Z,99107.47
2022-11-16T12:33:08.064Z,99103.91
2022-11-16T12:35:43.611Z,99106.59
2022-11-16T12:38:28.653Z,99092.38
2022-11-16T12:41:10.349Z,99098.25
2022-11-16T12:44:20.778Z,99090.88
2022-11-16T12:47:05.913Z,99084.50
2022-11-16T12:50:05.889Z,99075.47
2022-11-16T12:52:55.075Z,99082.53
2022-11-16T12:56:32.366Z,99088.72
2022-11-16T12:59:13.781Z,99087.56
2022-11-16T13:02:03.274Z,99087.91
2022-11-16T13:04:41.431Z,99090.06
2022-11-16T13:07:24.594Z,99082.31
2022-11-16T13:10:03.193Z,99083.31
2022-11-16T13:12:30.857Z,99093.03
2022-11-16T13:15:00.270Z,99084.13
2022-11-16T13:17:34.006Z,99082.97
2022-11-16T13:20:16.984Z,99076.09
2022-11-16T13:22:53.356Z,99085.16
2022-11-16T13:25:40.077Z,99089.34
2022-11-16T13:28:17.345Z,99084.31
2022-11-16T13:31:00.694Z,99078.63
2022-11-16T13:33:50.238Z,99076.94
2022-11-16T13:36:32.724Z,99076.94
2022-11-16T13:38:59.228Z,99074.56
2022-11-16T13:41:36.743Z,99064.53
2022-11-16T13:44:06.193Z,99064.69
2022-11-16T13:46:55.955Z,99070.91
2022-11-16T13:49:33.646Z,99070.91
2022-11-16T13:52:22.150Z,99070.72
2022-11-16T13:54:55.460Z,99070.06
2022-11-16T13:57:52.609Z,99065.06
2022-11-16T14:00:26.140Z,99068.41
2022-11-16T14:03:15.599Z,99061.38
2022-11-16T14:05:44.639Z,99062.53
2022-11-16T14:08:20.079Z,99063.69
2022-11-16T14:10:52.224Z,99054.09
2022-11-16T14:13:39.561Z,99053.44
2022-11-16T14:16:15.162Z,99052.41
2022-11-16T14:18:42.851Z,99050.75
2022-11-16T14:21:33.921Z,99041.16
2022-11-16T14:24:11.693Z,99049.06
2022-11-16T14:27:01.251Z,99046.69
2022-11-16T14:29:48.804Z,99047.53
2022-11-16T14:32:28.807Z,99049.06
2022-11-16T14:34:58.827Z,99049.38
2022-11-16T14:37:25.246Z,99048.38
2022-11-16T14:39:57.771Z,99043.19
2022-11-16T14:42:37.978Z,99038.63
2022-11-16T14:45:17.945Z,99044.84
2022-11-16T14:47:48.107Z,99039.78
2022-11-16T14:50:22.548Z,99036.59
2022-11-16T14:52:52.950Z,99033.91
2022-11-16T14:55:24.402Z,99031.06
2022-11-16T14:58:20.654Z,99024.19
2022-11-16T15:01:02.767Z,99029.53
2022-11-16T15:03:37.156Z,99025.72
2022-11-16T15:06:04.723Z,99016.13
2022-11-16T15:08:37.358Z,99020.09
2022-11-16T15:11:07.883Z,99019.56
2022-11-16T15:13:35.932Z,99026.09
2022-11-16T15:16:17.574Z,99024.78
2022-11-16T15:19:01.161Z,99022.25
2022-11-16T15:21:28.914Z,99016.75
2022-11-16T15:26:43.357Z,99017.03
2022-11-16T15:29:16.758Z,99011.84
2022-11-16T15:31:44.238Z,99013.53
2022-11-16T15:34:17.522Z,99010.31
2022-11-16T15:36:44.277Z,99012.81
2022-11-16T15:39:20.565Z,99005.13
2022-11-16T15:41:47.572Z,99005.25
2022-11-16T15:44:17.817Z,99004.25
2022-11-16T15:46:48.184Z,99009.63
2022-11-16T15:49:29.240Z,99012.50
2022-11-16T15:51:59.700Z,99007.28
2022-11-16T15:54:51.702Z,99004.59
2022-11-16T15:57:19.849Z,99006.41
2022-11-16T15:59:54.715Z,99007.78
2022-11-16T16:02:25.055Z,99006.13
2022-11-16T16:04:51.811Z,99002.72
2022-11-16T16:07:49.294Z,98999.22
2022-11-16T16:10:18.828Z,99008.81
2022-11-16T16:12:54.282Z,99001.75
2022-11-16T16:15:40.082Z,98996.69
2022-11-16T16:18:36.710Z,98998.22
2022-11-16T16:21:03.357Z,99009.09
2022-11-16T16:23:29.853Z,99002.72
2022-11-16T16:25:56.332Z,99006.28
2022-11-16T16:28:22.834Z,99001.91
2022-11-16T16:30:51.063Z,99005.41
2022-11-16T16:33:19.872Z,99001.56
2022-11-16T16:35:49.709Z,99003.97
2022-11-16T16:38:16.368Z,99002.09
2022-11-16T16:40:42.845Z,99006.31
2022-11-16T16:43:09.343Z,98997.28
2022-11-16T16:45:38.875Z,98995.59
2022-11-16T16:48:06.274Z,99001.13
2022-11-16T16:50:32.784Z,99006.50
2022-11-16T16:52:59.281Z,98995.91
2022-11-16T16:55:26.047Z,98994.38
2022-11-16T16:57:56.464Z,98994.91
2022-11-16T17:00:23.636Z,98993.91
2022-11-16T17:02:50.656Z,98991.38
2022-11-16T17:05:17.182Z,98991.72
2022-11-16T17:07:43.673Z,98990.19
2022-11-16T17:10:10.198Z,98988.16
2022-11-16T17:12:36.764Z,98982.13
2022-11-16T17:15:03.581Z,98981.13
2022-11-16T17:17:31.435Z,98986.34
2022-11-16T17:19:58.010Z,98983.50
2022-11-16T17:22:24.522Z,98976.63
2022-11-16T17:24:51.332Z,98983.00
2022-11-16T17:27:17.813Z,98975.09
2022-11-16T17:29:44.377Z,98975.09
2022-11-16T17:32:10.878Z,98972.41
2022-11-16T17:34:39.952Z,98982.44
2022-11-16T17:37:06.921Z,98973.72
2022-11-16T17:39:33.430Z,98973.19
2022-11-16T17:41:59.941Z,98970.38
2022-11-16T17:44:26.718Z,98976.41
2022-11-16T17:46:53.258Z,98977.25
2022-11-16T17:49:19.754Z,98974.88
2022-11-16T17:51:46.327Z,98967.84
2022-11-16T17:54:12.842Z,98973.03
2022-11-16T17:56:39.358Z,98974.72
2022-11-16T17:59:06.178Z,98975.72
2022-11-16T18:01:33.199Z,98963.16
2022-11-16T18:04:00.798Z,98971.03
2022-11-16T18:06:27.317Z,98971.56
2022-11-16T18:08:54.246Z,98968.22
2022-11-16T18:11:26.152Z,98960.31
2022-11-16T18:13:56.015Z,98961.16
2022-11-16T18:16:24.948Z,98969.22
2022-11-16T18:19:05.846Z,98955.81
2022-11-16T18:21:37.931Z,98955.63
2022-11-16T18:24:04.558Z,98953.13
2022-11-16T18:26:31.048Z,98957.97
2022-11-16T18:28:57.574Z,98955.97
2022-11-16T18:31:24.960Z,98956.97
2022-11-16T18:33:52.136Z,98956.25
2022-11-16T18:36:20.317Z,98961.16
2022-11-16T18:38:47.002Z,98958.78
2022-11-16T18:41:13.442Z,98961.31
2022-11-16T18:43:50.257Z,98963.16
2022-11-16T18:46:21.773Z,98965.16
2022-11-16T18:48:48.358Z,98955.97
2022-11-16T18:51:16.840Z,98954.94
2022-11-16T18:53:43.871Z,98957.47
2022-11-16T18:56:11.882Z,98960.31
2022-11-16T18:58:54.606Z,98956.81
2022-11-16T19:01:24.423Z,98947.06
2022-11-16T19:03:52.223Z,98939.19
2022-11-16T19:06:19.598Z,98952.41
2022-11-16T19:08:53.646Z,98948.91
2022-11-16T19:11:23.326Z,98946.22
2022-11-16T19:13:57.499Z,98947.06
2022-11-16T19:16:25.089Z,98946.22
2022-11-16T19:18:52.145Z,98947.91
2022-11-16T19:21:19.065Z,98949.59
2022-11-16T19:23:47.789Z,98942.41
2022-11-16T19:26:15.979Z,98936.34
2022-11-16T19:28:44.819Z,98933.84
2022-11-16T19:31:17.262Z,98935.66
2022-11-16T19:33:44.584Z,98935.00
2022-11-16T19:36:18.904Z,98929.78
2022-11-16T19:38:46.949Z,98937.97
2022-11-16T19:41:15.896Z,98934.13
2022-11-16T19:43:42.654Z,98937.81
2022-11-16T19:46:16.611Z,98926.25
2022-11-16T19:48:44.760Z,98932.31
2022-11-16T19:51:16.568Z,98923.41
2022-11-16T19:53:43.250Z,98935.00
2022-11-16T19:56:14.949Z,98926.09
2022-11-16T19:58:42.285Z,98924.09
2022-11-16T20:01:17.017Z,98930.44
2022-11-16T20:03:44.423Z,98929.00
2022-11-16T20:06:22.140Z,98921.41
2022-11-16T20:08:54.029Z,98935.00
2022-11-16T20:11:25.453Z,98941.66
2022-11-16T20:13:53.714Z,98934.63
2022-11-16T20:16:22.890Z,98941.97
2022-11-16T20:18:50.338Z,98941.50
2022-11-16T20:21:22.137Z,98936.16
2022-11-16T20:23:49.589Z,98928.94
2022-11-16T20:26:16.099Z,98939.13
2022-11-16T20:28:43.481Z,98933.91
2022-11-16T20:31:15.239Z,98934.09
2022-11-16T20:33:43.073Z,98930.56
2022-11-16T20:36:11.403Z,98936.06
2022-11-16T20:38:39.418Z,98929.03
2022-11-16T20:41:14.842Z,98936.56
2022-11-16T20:43:42.690Z,98935.88
2022-11-16T20:46:13.974Z,98931.50
2022-11-16T20:48:42.558Z,98934.34
2022-11-16T20:51:12.149Z,98927.31
2022-11-16T20:53:38.987Z,98928.13
2022-11-16T20:56:07.560Z,98929.66
2022-11-16T20:58:35.088Z,98930.81
2022-11-16T21:01:05.117Z,98930.31
2022-11-16T21:03:32.255Z,98932.31
2022-11-16T21:05:58.931Z,98928.09
2022-11-16T21:08:26.637Z,98923.03
2022-11-16T21:10:53.804Z,98919.53
2022-11-16T21:13:40.147Z,98918.81
2022-11-16T21:16:10.851Z,98913.66
2022-11-16T21:18:38.297Z,98914.47
2022-11-16T21:21:06.276Z,98903.59
2022-11-16T21:23:34.974Z,98906.44
2022-11-16T21:26:03.586Z,98908.09
2022-11-16T21:28:30.433Z,98901.75
2022-11-16T21:31:05.734Z,98901.59
2022-11-16T21:33:32.805Z,98902.13
2022-11-16T21:36:14.222Z,98911.69
2022-11-16T21:38:41.140Z,98898.00
2022-11-16T21:41:09.638Z,98900.16
2022-11-16T21:43:37.212Z,98885.75
2022-11-16T21:46:10.038Z,98880.69
2022-11-16T21:48:37.321Z,98878.34
2022-11-16T21:51:12.553Z,98869.44
2022-11-16T21:53:39.559Z,98872.28
2022-11-16T21:56:12.506Z,98866.91
2022-11-16T21:58:40.149Z,98863.25
2022-11-16T22:01:08.958Z,98869.59
2022-11-16T22:03:35.724Z,98870.44
2022-11-16T22:06:23.301Z,98869.78
2022-11-16T22:08:50.374Z,98870.59
2022-11-16T22:11:17.604Z,98856.19
2022-11-16T22:13:44.372Z,98851.38
2022-11-16T22:16:15.470Z,98854.38
2022-11-16T22:18:42.489Z,98858.56
2022-11-16T22:21:09.777Z,98872.34
2022-11-16T22:23:37.656Z,98892.09
2022-11-16T22:26:07.498Z,98906.13
2022-11-16T22:28:35.392Z,98909.59
2022-11-16T22:31:15.513Z,98894.66
2022-11-16T22:33:42.508Z,98895.50
2022-11-16T22:36:10.351Z,98890.84
2022-11-16T22:38:37.346Z,98890.13
2022-11-16T22:41:04.237Z,98889.97
2022-11-16T22:43:31.293Z,98892.66
2022-11-16T22:46:04.286Z,98897.50
2022-11-16T22:48:41.120Z,98892.13
2022-11-16T22:51:20.657Z,98889.31
2022-11-16T22:53:47.305Z,98886.31
2022-11-16T22:56:14.132Z,98888.84
2022-11-16T22:58:40.649Z,98895.34
2022-11-16T23:01:09.204Z,98888.47
2022-11-16T23:03:36.779Z,98885.25
2022-11-16T23:06:04.563Z,98894.59
2022-11-16T23:08:32.134Z,98894.06
2022-11-16T23:11:22.906Z,98888.34
2022-11-16T23:14:08.687Z,98878.78
2022-11-16T23:16:35.904Z,98870.75
2022-11-16T23:19:02.454Z,98870.44
2022-11-16T23:21:47.804Z,98865.59
2022-11-16T23:24:34.097Z,98878.31
2022-11-16T23:27:22.637Z,98873.25
2022-11-16T23:29:49.552Z,98871.72
2022-11-16T23:32:16.132Z,98873.72
2022-11-16T23:34:42.615Z,98874.88
2022-11-16T23:37:09.141Z,98878.72
2022-11-16T23:39:35.652Z,98877.88
2022-11-16T23:42:20.932Z,98889.03
2022-11-16T23:44:47.490Z,98882.00
2022-11-16T23:47:14.074Z,98884.00
2022-11-16T23:49:40.549Z,98874.31
2022-11-16T23:52:07.597Z,98869.09
2022-11-16T23:54:34.147Z,98872.78
2022-11-16T23:57:00.650Z,98874.75
2022-11-16T23:59:27.310Z,98864.03
